Airfield :
LOGIN :

Register | Disclaimer

   EN    FR    IT 

 










Legend :    VFR   Marginal VFR   IFR   Intensive IFR   Very Intensive IFR
Visi :
Ceiling :
>= 8 km
>= 3000ft
5 to 8 km
1000 to 3000 ft
1500m to 5 km
500 to 1000 ft
800 to 1500m
200 to 500 ft
< 800m
< 200 ft
Symbols :   Thunderstorms  Fog  Heavy snow  Heavy precipitations  Wind > 20 kt
SIGMETs :     Misc.  Thunderstorms  Icing  Turbulence  Mountain Waves  Volcanic Ashes






- Airport Elevation : 34 ft
- IATA code : KRF


ESNK - Kramfors Sollefteå

CURRENT METAR :
  • 061950Z AUTO 30004KT 9999 BKN078/// 13/12 Q0988

EXPIRED METARs :
  • 061920Z AUTO 31003KT 9999 SCT086/// BKN110/// OVC170/// 13/12 Q0988
  • 061850Z AUTO 02003KT 9999 BKN051/// OVC130/// 14/11 Q0988
  • 061820Z AUTO VRB02KT 9999 FEW049/// BKN150/// 14/11 Q0987
  • 061750Z AUTO 00000KT 9999 SCT031/// BKN055/// OVC068/// 14/11 Q0987
  • 061720Z AUTO 10004KT 9999 -RA SCT027/// OVC053/// 14/11 Q0986 RERA

Expired Forecast.



MET'MAP, your aeronautical weather chart ! - Copyright ORBIFLY December 2007 - Disclaimer

ORBIFLY MET'MAP TEAM :

Programming & Development : Alexandra Zaïnal
Concept & original design : Baudouin d'Aumeries
Assistance for programming : Marc-Olivier Méhu
Technical & hardware support : Manuel Goepfert

Contact : metmap@orbifly.com




SOURCES & CREDITS :

   NOAA